Time;durP1;ratioP1;P1;durP2;ratioP2;P2;SDS_P1;SDS_P2;PMS_P1;PMS_P2;Temp;Humidity;BMP_temperature;BMP_pressure;BME280_temperature;BME280_humidity;BME280_pressure;Samples;Min_cycle;Max_cycle;Signal;HPM_P1;HPM_P2
2023/05/13 00:01:30;;;;;;;;;;;14.40;57.60;;;10.05;100.00;95286.28;5045199;28;19915;-49
2023/05/13 00:03:55;;;;;;;;;;;14.40;57.00;;;10.09;100.00;95282.03;5043119;28;19931;-53
2023/05/13 00:06:21;;;;;;;;;;;14.40;57.00;;;10.13;100.00;95287.63;5050538;28;19913;-53
2023/05/13 00:08:47;;;;;;;;;;;14.50;57.10;;;10.12;100.00;95288.66;5041105;28;19955;-52
2023/05/13 00:11:12;;;;;;;;;;;14.50;57.10;;;10.16;100.00;95287.88;5051404;28;19912;-49
2023/05/13 00:13:38;;;;;;;;;;;14.50;57.10;;;10.19;100.00;95287.34;5051225;28;19916;-52
2023/05/13 00:16:04;;;;;;;;;;;14.50;57.10;;;10.23;100.00;95281.47;5036392;28;19908;-49
2023/05/13 00:18:30;;;;;;;;;;;14.50;57.10;;;10.25;100.00;95287.31;5049996;28;19912;-53
2023/05/13 00:20:55;;;;;;;;;;;14.60;57.10;;;10.26;100.00;95287.09;5045442;28;19920;-49
2023/05/13 00:23:21;;;;;;;;;;;14.60;57.10;;;10.27;100.00;95293.22;5051253;28;19966;-49
2023/05/13 00:25:47;;;;;;;;;;;14.60;57.80;;;10.29;100.00;95288.41;5049630;28;19958;-51
2023/05/13 00:28:13;;;;;;;;;;;14.60;57.20;;;10.27;100.00;95285.22;5032721;28;19916;-49
2023/05/13 00:30:44;;;;;;;;;;;14.60;57.10;;;10.22;100.00;95280.69;5048331;28;19931;-48
2023/05/13 00:33:10;;;;;;;;;;;14.70;57.20;;;10.26;100.00;95278.28;5048595;28;19943;-49
2023/05/13 00:35:36;;;;;;;;;;;14.70;57.30;;;10.28;100.00;95282.31;5051440;28;19924;-49
2023/05/13 00:38:02;;;;;;;;;;;14.60;57.30;;;10.30;100.00;95279.34;5047165;28;19920;-52
2023/05/13 00:40:28;;;;;;;;;;;14.70;57.30;;;10.29;100.00;95278.56;5049336;28;19913;-49
2023/05/13 00:42:54;;;;;;;;;;;14.70;57.40;;;10.29;100.00;95285.75;5051024;28;19916;-49
2023/05/13 00:45:20;;;;;;;;;;;14.70;57.40;;;10.27;100.00;95291.34;5041551;28;19912;-49
2023/05/13 00:47:47;;;;;;;;;;;14.70;57.40;;;10.24;100.00;95291.06;5050678;28;19908;-49
2023/05/13 00:50:14;;;;;;;;;;;14.70;57.40;;;10.21;100.00;95289.72;5046121;28;19916;-51
2023/05/13 00:52:42;;;;;;;;;;;14.60;57.40;;;10.22;100.00;95286.00;5042867;28;20050;-54
2023/05/13 00:55:09;;;;;;;;;;;14.60;57.40;;;10.18;100.00;95283.09;5050934;28;20030;-49
2023/05/13 00:57:38;;;;;;;;;;;14.60;57.50;;;10.18;100.00;95279.59;5035670;28;19916;-50
2023/05/13 01:00:05;;;;;;;;;;;14.60;57.50;;;10.15;100.00;95286.28;5050206;28;19912;-49
2023/05/13 01:03:04;;;;;;;;;;;14.60;57.50;;;10.16;100.00;95279.91;5025717;28;20007;-48
2023/05/13 01:05:51;;;;;;;;;;;14.60;57.50;;;10.14;100.00;95284.69;5016725;28;19917;-49
2023/05/13 01:08:44;;;;;;;;;;;14.50;57.60;;;10.07;100.00;95280.72;5045431;28;20347;-51
2023/05/13 01:11:29;;;;;;;;;;;14.50;57.70;;;10.13;100.00;95279.63;5048332;28;20351;-49
2023/05/13 01:14:11;;;;;;;;;;;14.50;57.70;;;10.12;100.00;95284.16;5033154;28;20359;-49
2023/05/13 01:16:49;;;;;;;;;;;14.50;57.70;;;10.18;100.00;95276.94;5033029;28;20596;-49
2023/05/13 01:19:34;;;;;;;;;;;14.60;57.80;;;10.21;100.00;95281.72;5052848;28;19916;-49
2023/05/13 01:22:00;;;;;;;;;;;14.60;57.90;;;10.23;100.00;95287.59;5032571;28;20290;-50
2023/05/13 01:24:25;;;;;;;;;;;14.60;57.90;;;10.26;100.00;95291.59;5054532;28;19908;-49
2023/05/13 01:26:51;;;;;;;;;;;14.60;57.90;;;10.21;100.00;95284.41;5043580;28;19912;-49
2023/05/13 01:29:17;;;;;;;;;;;14.60;58.20;;;10.23;100.00;95278.81;5040693;28;20255;-53
2023/05/13 01:31:45;;;;;;;;;;;14.60;57.90;;;10.23;100.00;95279.63;5054406;28;19908;-50
2023/05/13 01:34:14;;;;;;;;;;;14.60;57.90;;;10.21;100.00;95279.06;5039520;28;20029;-49
2023/05/13 01:36:40;;;;;;;;;;;14.60;57.90;;;10.21;100.00;95276.41;5036462;28;19908;-49
2023/05/13 01:39:08;;;;;;;;;;;14.60;57.90;;;10.23;100.00;95278.81;5029809;28;19913;-51
2023/05/13 01:41:34;;;;;;;;;;;14.60;57.90;;;10.24;100.00;95283.84;5054218;28;20350;-49
2023/05/13 01:44:00;;;;;;;;;;;14.60;58.00;;;10.27;100.00;95290.53;5050268;28;19963;-48
2023/05/13 01:46:25;;;;;;;;;;;14.60;58.00;;;10.27;100.00;95288.69;5046986;28;20367;-53
2023/05/13 01:48:51;;;;;;;;;;;14.60;58.00;;;10.26;100.00;95289.75;5036246;28;19916;-49
2023/05/13 01:51:17;;;;;;;;;;;14.60;58.00;;;10.26;100.00;95288.94;5039988;28;19909;-50
2023/05/13 01:53:43;;;;;;;;;;;14.60;58.00;;;10.24;100.00;95289.19;5053406;28;19918;-50
2023/05/13 02:00:20;;;;;;;;;;;14.60;58.10;;;10.29;100.00;95291.09;5024666;28;19943;-49
2023/05/13 02:02:46;;;;;;;;;;;14.60;58.20;;;10.26;100.00;95291.59;5029691;28;19912;-49
2023/05/13 02:05:12;;;;;;;;;;;14.60;58.20;;;10.28;100.00;95298.28;5033741;28;19917;-51
2023/05/13 02:07:37;;;;;;;;;;;14.60;58.20;;;10.29;100.00;95305.19;5033575;28;19912;-52
2023/05/13 02:10:04;;;;;;;;;;;14.60;58.30;;;10.29;100.00;95307.06;5034208;28;19955;-50
2023/05/13 02:12:29;;;;;;;;;;;14.60;58.30;;;10.29;100.00;95299.88;5033995;28;19909;-55
2023/05/13 02:14:55;;;;;;;;;;;14.60;58.30;;;10.28;100.00;95310.75;5033036;28;20287;-51
2023/05/13 02:17:21;;;;;;;;;;;14.60;58.30;;;10.27;100.00;95301.97;5033567;28;19948;-50
2023/05/13 02:19:47;;;;;;;;;;;14.70;58.30;;;10.28;100.00;95308.09;5015128;28;19913;-51
2023/05/13 02:22:13;;;;;;;;;;;14.60;58.30;;;10.30;100.00;95308.63;5033750;28;19909;-51
2023/05/13 02:24:39;;;;;;;;;;;14.60;58.40;;;10.32;100.00;95302.00;5016119;28;20449;-50
2023/05/13 02:27:06;;;;;;;;;;;14.60;58.40;;;10.29;100.00;95302.53;5033114;28;20458;-51
2023/05/13 02:29:32;;;;;;;;;;;14.60;58.40;;;10.24;100.00;95304.38;5045785;28;19912;-49
2023/05/13 02:31:58;;;;;;;;;;;14.60;58.40;;;10.27;100.00;95301.19;5031899;28;19920;-50
2023/05/13 02:34:24;;;;;;;;;;;14.70;58.50;;;10.29;100.00;95307.06;5033482;28;19909;-49
2023/05/13 02:36:51;;;;;;;;;;;14.60;58.40;;;10.29;100.00;95304.41;5033185;28;19954;-49
2023/05/13 02:39:17;;;;;;;;;;;14.60;58.50;;;10.30;100.00;95304.09;5032529;28;19913;-48
2023/05/13 02:41:46;;;;;;;;;;;14.60;58.50;;;10.28;100.00;95306.25;5033613;28;19915;-49
2023/05/13 02:44:11;;;;;;;;;;;14.70;58.60;;;10.28;100.00;95308.09;5032308;28;20015;-52
2023/05/13 02:46:37;;;;;;;;;;;14.60;58.60;;;10.22;100.00;95306.50;5032761;28;20352;-49
2023/05/13 02:49:03;;;;;;;;;;;14.60;58.60;;;10.25;100.00;95306.78;5033028;28;19912;-52
2023/05/13 02:51:28;;;;;;;;;;;14.60;58.50;;;10.25;100.00;95304.09;5032531;28;19909;-49
2023/05/13 02:53:54;;;;;;;;;;;14.60;58.60;;;10.28;100.00;95313.44;5033013;28;19909;-49
2023/05/13 02:56:20;;;;;;;;;;;14.60;58.60;;;10.25;100.00;95312.09;5031167;28;19909;-50
2023/05/13 02:58:46;;;;;;;;;;;14.60;58.60;;;10.26;100.00;95303.06;5033059;28;19917;-50
2023/05/13 03:01:12;;;;;;;;;;;14.60;58.70;;;10.25;100.00;95308.59;5032834;28;19918;-51
2023/05/13 03:03:38;;;;;;;;;;;14.60;58.70;;;10.22;100.00;95309.97;5031440;28;19920;-52
2023/05/13 03:06:05;;;;;;;;;;;14.60;58.70;;;10.18;100.00;95306.22;5032523;28;19947;-51
2023/05/13 03:08:30;;;;;;;;;;;14.60;58.80;;;10.17;100.00;95304.63;5031834;28;19915;-49
2023/05/13 03:10:57;;;;;;;;;;;14.60;58.80;;;10.16;100.00;95306.50;5032708;28;19912;-53
2023/05/13 03:13:23;;;;;;;;;;;14.60;58.80;;;10.17;100.00;95307.31;5032675;28;19908;-49
2023/05/13 03:15:49;;;;;;;;;;;14.50;58.90;;;10.17;100.00;95310.75;5031210;28;19915;-51
2023/05/13 03:18:15;;;;;;;;;;;14.60;58.90;;;10.18;100.00;95312.38;5031031;28;20436;-49
2023/05/13 03:20:40;;;;;;;;;;;14.50;58.90;;;10.15;100.00;95312.91;5028079;28;20375;-51
2023/05/13 03:23:06;;;;;;;;;;;14.50;58.90;;;10.15;100.00;95312.09;5032106;28;19974;-49
2023/05/13 03:25:32;;;;;;;;;;;14.50;59.00;;;10.13;100.00;95323.00;5045653;28;19908;-47
2023/05/13 03:27:58;;;;;;;;;;;14.50;59.00;;;10.15;100.00;95314.75;5030147;28;20392;-50
2023/05/13 03:30:23;;;;;;;;;;;14.50;59.00;;;10.12;100.00;95317.94;5014056;28;19916;-50
2023/05/13 03:32:49;;;;;;;;;;;14.50;59.10;;;10.11;100.00;95319.00;5031414;28;19908;-48
2023/05/13 03:35:15;;;;;;;;;;;14.50;59.10;;;10.11;100.00;95321.69;5032267;28;19930;-49
2023/05/13 03:37:41;;;;;;;;;;;14.50;59.20;;;10.07;100.00;95320.63;5014357;28;19912;-48
2023/05/13 03:40:07;;;;;;;;;;;14.50;59.20;;;10.05;100.00;95322.75;5031027;28;20461;-49
2023/05/13 03:42:33;;;;;;;;;;;14.40;59.20;;;10.04;100.00;95326.47;5031498;28;20287;-49
2023/05/13 03:44:59;;;;;;;;;;;14.40;59.30;;;10.02;100.00;95323.28;5031034;28;19909;-49
2023/05/13 03:47:25;;;;;;;;;;;14.50;59.30;;;10.03;100.00;95320.38;5031823;28;20367;-49
2023/05/13 03:49:50;;;;;;;;;;;14.40;59.30;;;10.03;100.00;95324.88;5030478;28;19952;-52
2023/05/13 03:52:16;;;;;;;;;;;14.40;59.40;;;10.03;100.00;95316.88;5032081;28;20384;-50
2023/05/13 03:54:42;;;;;;;;;;;14.40;59.40;;;10.04;100.00;95327.28;5031541;28;20394;-45
2023/05/13 03:57:08;;;;;;;;;;;14.40;59.40;;;10.04;100.00;95327.28;5030998;28;19912;-46
2023/05/13 03:59:34;;;;;;;;;;;14.40;59.40;;;10.04;100.00;95327.28;5031236;28;19919;-48
2023/05/13 04:01:59;;;;;;;;;;;14.40;60.10;;;10.03;100.00;95332.84;5030300;28;20330;-47
2023/05/13 04:04:25;;;;;;;;;;;14.40;59.50;;;10.04;100.00;95337.91;5031526;28;19917;-46
2023/05/13 04:06:51;;;;;;;;;;;14.40;59.50;;;10.04;100.00;95347.78;5031715;28;19912;-47
2023/05/13 04:09:17;;;;;;;;;;;14.40;59.50;;;10.04;100.00;95337.13;5031207;28;19908;-47
2023/05/13 04:11:42;;;;;;;;;;;14.40;59.60;;;10.05;100.00;95336.06;5031718;28;19952;-50
2023/05/13 04:14:08;;;;;;;;;;;14.40;59.60;;;10.07;100.00;95347.25;5030407;28;19995;-45
2023/05/13 04:16:34;;;;;;;;;;;14.40;59.60;;;10.04;100.00;95350.44;5031701;28;19935;-45
2023/05/13 04:19:00;;;;;;;;;;;14.40;59.60;;;10.03;100.00;95348.81;5033053;28;19913;-46
2023/05/13 04:21:26;;;;;;;;;;;14.40;59.70;;;10.05;100.00;95352.00;5034805;28;20322;-47
2023/05/13 04:23:52;;;;;;;;;;;14.40;59.70;;;10.02;100.00;95352.56;5031508;28;20276;-47
2023/05/13 04:26:17;;;;;;;;;;;14.40;59.70;;;10.06;100.00;95350.94;5026445;28;19913;-52
2023/05/13 04:28:43;;;;;;;;;;;14.40;59.70;;;10.07;100.00;95358.69;5027346;28;19924;-47
2023/05/13 04:31:11;;;;;;;;;;;14.50;59.80;;;10.05;100.00;95358.13;5031053;28;19919;-47
2023/05/13 04:33:36;;;;;;;;;;;14.40;59.80;;;10.04;100.00;95355.75;5030462;28;19938;-47
2023/05/13 04:36:02;;;;;;;;;;;14.40;59.70;;;10.05;100.00;95352.81;5031361;28;19908;-47
2023/05/13 04:38:29;;;;;;;;;;;14.50;59.80;;;10.05;100.00;95354.69;5029577;28;19909;-50
2023/05/13 04:40:55;;;;;;;;;;;14.50;59.80;;;10.02;100.00;95360.53;5031414;28;19931;-47
2023/05/13 04:43:23;;;;;;;;;;;14.50;59.80;;;10.00;100.00;95357.31;5030160;28;26620;-50
2023/05/13 04:45:48;;;;;;;;;;;14.50;59.90;;;10.02;100.00;95358.66;5030132;28;20312;-47
2023/05/13 04:48:15;;;;;;;;;;;14.50;59.80;;;10.04;100.00;95361.06;5031096;28;19913;-47
2023/05/13 04:50:45;;;;;;;;;;;14.50;59.90;;;10.02;100.00;95365.84;5029767;28;19909;-47
2023/05/13 04:53:12;;;;;;;;;;;14.50;59.90;;;10.04;100.00;95369.84;5028127;28;19916;-50
2023/05/13 04:55:37;;;;;;;;;;;14.50;59.90;;;10.01;100.00;95369.59;5024874;28;19919;-47
2023/05/13 04:58:03;;;;;;;;;;;14.50;60.70;;;9.99;100.00;95371.72;5033972;28;19909;-47
2023/05/13 05:00:29;;;;;;;;;;;14.50;59.90;;;10.03;100.00;95373.59;5034366;28;19920;-47
2023/05/13 05:02:55;;;;;;;;;;;14.50;60.00;;;10.01;100.00;95370.38;5033849;28;20260;-47
2023/05/13 05:05:21;;;;;;;;;;;14.50;60.00;;;10.02;100.00;95376.50;5035118;28;19913;-48
2023/05/13 05:07:47;;;;;;;;;;;14.50;60.00;;;10.04;100.00;95382.38;5034432;28;20371;-51
2023/05/13 05:10:14;;;;;;;;;;;14.50;60.00;;;10.07;100.00;95381.84;5034746;28;19999;-47
2023/05/13 05:12:41;;;;;;;;;;;14.50;60.00;;;10.08;100.00;95378.09;5034757;28;20347;-47
2023/05/13 05:15:14;;;;;;;;;;;14.50;60.00;;;10.11;100.00;95388.22;5033895;28;20305;-47
2023/05/13 05:17:44;;;;;;;;;;;14.60;60.00;;;10.07;100.00;95384.50;5035016;28;19962;-47
2023/05/13 05:20:12;;;;;;;;;;;14.60;60.10;;;10.08;100.00;95381.56;5037559;28;20035;-47
2023/05/13 05:22:38;;;;;;;;;;;14.60;60.00;;;10.10;100.00;95381.31;5034823;28;20720;-49
2023/05/13 05:25:04;;;;;;;;;;;14.60;60.10;;;10.10;100.00;95383.97;5034785;28;19915;-47
2023/05/13 05:27:30;;;;;;;;;;;14.60;60.10;;;10.10;100.00;95384.75;5033927;28;19951;-47
2023/05/13 05:29:55;;;;;;;;;;;14.60;60.10;;;10.12;100.00;95393.28;5034154;28;19952;-47
2023/05/13 05:32:22;;;;;;;;;;;14.70;60.10;;;10.13;100.00;95386.88;5033305;28;20007;-53
2023/05/13 05:34:47;;;;;;;;;;;14.70;60.10;;;10.16;100.00;95396.22;5021399;28;19916;-50
2023/05/13 05:37:13;;;;;;;;;;;14.70;60.10;;;10.16;100.00;95386.34;5034585;28;19915;-47
2023/05/13 05:39:40;;;;;;;;;;;14.70;60.10;;;10.19;100.00;95391.16;5032861;28;19917;-50
2023/05/13 05:42:07;;;;;;;;;;;14.70;60.10;;;10.18;100.00;95386.91;5034603;28;20283;-47
2023/05/13 05:44:32;;;;;;;;;;;14.70;60.10;;;10.22;100.00;95394.34;5021159;28;19981;-47
2023/05/13 05:46:58;;;;;;;;;;;14.80;60.10;;;10.26;100.00;95387.41;5034132;28;19951;-54
2023/05/13 05:49:24;;;;;;;;;;;14.80;60.10;;;10.30;100.00;95386.63;5034045;28;19912;-49
2023/05/13 05:51:50;;;;;;;;;;;14.80;60.10;;;10.30;100.00;95397.28;5033244;28;20454;-49
2023/05/13 05:54:15;;;;;;;;;;;14.90;60.10;;;10.24;100.00;95398.31;5021030;28;19913;-47
2023/05/13 05:56:41;;;;;;;;;;;14.90;60.10;;;10.30;100.00;95394.63;5033144;28;20241;-49
2023/05/13 05:59:07;;;;;;;;;;;15.00;60.00;;;10.37;100.00;95400.50;5033375;28;20017;-49
2023/05/13 06:01:35;;;;;;;;;;;15.00;60.70;;;10.40;100.00;95399.97;5034217;28;20364;-47
2023/05/13 06:04:02;;;;;;;;;;;15.10;59.90;;;10.49;100.00;95388.75;5015650;28;19921;-48
2023/05/13 06:06:28;;;;;;;;;;;15.20;59.90;;;10.48;100.00;95392.50;5033727;28;20316;-50
2023/05/13 06:08:53;;;;;;;;;;;15.30;59.90;;;10.50;100.00;95396.50;5032372;28;20004;-47
2023/05/13 06:11:19;;;;;;;;;;;15.30;59.70;;;10.57;100.00;95396.22;5029166;28;19913;-47
2023/05/13 06:13:45;;;;;;;;;;;15.30;59.70;;;10.54;100.00;95400.22;5033870;28;19909;-47
2023/05/13 06:16:11;;;;;;;;;;;15.30;59.70;;;10.61;100.00;95399.94;5032924;28;20023;-47
2023/05/13 06:18:36;;;;;;;;;;;15.40;59.60;;;10.61;99.78;95400.72;5033158;28;19913;-48
2023/05/13 06:21:02;;;;;;;;;;;15.50;59.60;;;10.59;99.16;95400.22;5037283;28;19909;-47
2023/05/13 06:23:28;;;;;;;;;;;15.50;59.60;;;10.70;99.00;95400.19;5033375;28;19908;-51
2023/05/13 06:25:54;;;;;;;;;;;15.60;59.50;;;10.75;98.65;95408.97;5028111;28;19909;-50
2023/05/13 06:28:20;;;;;;;;;;;15.60;59.50;;;10.81;97.78;95404.41;5037375;28;19908;-48
2023/05/13 06:30:45;;;;;;;;;;;15.70;59.50;;;10.89;97.29;95407.34;5043801;28;19920;-47
2023/05/13 06:33:11;;;;;;;;;;;15.80;59.40;;;10.89;96.15;95406.53;5047910;28;20007;-47
2023/05/13 06:35:38;;;;;;;;;;;15.90;59.40;;;10.99;96.38;95405.72;5052979;28;20437;-48
2023/05/13 06:38:03;;;;;;;;;;;16.00;59.30;;;10.98;95.71;95407.59;5049780;28;20009;-48
2023/05/13 06:40:29;;;;;;;;;;;16.00;59.20;;;11.06;95.47;95416.88;5046461;28;20379;-48
2023/05/13 06:42:55;;;;;;;;;;;16.10;59.10;;;11.09;94.95;95417.16;5053241;28;19951;-47
2023/05/13 06:45:22;;;;;;;;;;;16.20;59.00;;;11.09;94.85;95414.50;5039398;28;19993;-49
2023/05/13 06:47:52;;;;;;;;;;;16.20;58.90;;;11.05;95.13;95413.41;5052910;28;19919;-53
2023/05/13 06:50:18;;;;;;;;;;;16.30;58.80;;;11.10;95.09;95404.63;5035373;28;19923;-53
2023/05/13 06:52:44;;;;;;;;;;;16.30;58.80;;;11.08;95.12;95410.22;5043179;28;19931;-50
2023/05/13 06:55:10;;;;;;;;;;;16.30;58.70;;;11.17;94.69;95413.13;5046697;28;20366;-46
2023/05/13 06:57:36;;;;;;;;;;;16.40;58.70;;;11.23;94.29;95414.69;5044222;28;19919;-50
2023/05/13 07:00:02;;;;;;;;;;;16.40;59.30;;;11.28;93.35;95416.53;5048925;28;20051;-48
2023/05/13 07:02:28;;;;;;;;;;;16.40;58.60;;;11.26;93.02;95421.38;5046771;28;19909;-51
2023/05/13 07:04:54;;;;;;;;;;;16.40;58.60;;;11.23;93.07;95420.03;5032147;28;19924;-45
2023/05/13 07:07:20;;;;;;;;;;;16.50;58.50;;;11.33;93.31;95419.19;5052545;28;20325;-48
2023/05/13 07:09:45;;;;;;;;;;;16.50;58.50;;;11.28;92.58;95413.88;5042109;28;20371;-48
2023/05/13 07:12:11;;;;;;;;;;;16.50;58.40;;;11.39;92.87;95415.44;5042138;28;20394;-49
2023/05/13 07:14:37;;;;;;;;;;;16.60;58.40;;;11.51;91.95;95418.59;5034876;28;20058;-50
2023/05/13 07:17:03;;;;;;;;;;;16.70;58.30;;;11.57;91.78;95422.03;5051390;28;19909;-47
2023/05/13 07:19:30;;;;;;;;;;;16.80;58.30;;;11.64;90.97;95425.19;5042759;28;19934;-48
2023/05/13 07:21:55;;;;;;;;;;;16.90;58.20;;;11.73;90.55;95428.88;5042000;28;19915;-47
2023/05/13 07:24:21;;;;;;;;;;;17.00;58.10;;;11.82;90.61;95429.09;5038129;28;19913;-52
2023/05/13 07:26:47;;;;;;;;;;;17.10;58.60;;;11.92;89.75;95426.41;5033269;28;19917;-54
2023/05/13 07:29:13;;;;;;;;;;;17.20;57.90;;;11.88;88.77;95427.25;5034748;28;20291;-52
2023/05/13 07:31:39;;;;;;;;;;;17.30;57.80;;;11.85;88.33;95430.47;5035053;28;19916;-47
2023/05/13 07:34:04;;;;;;;;;;;17.30;57.60;;;11.89;88.05;95428.84;5025713;28;19919;-45
2023/05/13 07:36:30;;;;;;;;;;;17.30;57.60;;;11.86;87.95;95426.72;5039509;28;19952;-47
2023/05/13 07:38:56;;;;;;;;;;;17.30;57.50;;;11.77;87.19;95427.25;5039202;28;19923;-46
2023/05/13 07:41:22;;;;;;;;;;;17.30;57.40;;;11.68;87.35;95426.22;5039797;28;19912;-45
2023/05/13 07:43:48;;;;;;;;;;;17.40;57.30;;;11.78;87.50;95420.88;5040550;28;20447;-49
2023/05/13 07:46:14;;;;;;;;;;;17.40;57.10;;;11.85;86.99;95425.91;5038602;28;19908;-47
2023/05/13 07:48:40;;;;;;;;;;;17.50;57.00;;;11.86;86.62;95419.50;5040057;28;19919;-47
2023/05/13 07:51:05;;;;;;;;;;;17.50;56.90;;;11.86;86.36;95424.84;5035461;28;19912;-46
2023/05/13 07:53:31;;;;;;;;;;;17.60;56.80;;;11.90;86.56;95423.19;5020768;28;19920;-45
2023/05/13 07:55:57;;;;;;;;;;;17.80;56.70;;;12.00;84.55;95425.00;5038631;28;20044;-49
2023/05/13 07:58:23;;;;;;;;;;;17.80;56.50;;;12.21;84.98;95431.03;5039944;28;19912;-45
2023/05/13 08:00:48;;;;;;;;;;;18.00;56.30;;;12.34;82.86;95425.03;5040048;28;19912;-46
2023/05/13 08:03:15;;;;;;;;;;;18.20;56.20;;;12.37;83.13;95426.34;5037511;28;19924;-45
2023/05/13 08:05:41;;;;;;;;;;;18.40;56.00;;;12.58;82.42;95432.34;5040341;28;19916;-50
2023/05/13 08:08:07;;;;;;;;;;;18.50;55.80;;;12.69;80.83;95428.47;5034844;28;19924;-50
2023/05/13 08:10:33;;;;;;;;;;;18.60;55.80;;;12.79;80.84;95431.09;5041079;28;20295;-47
2023/05/13 08:12:59;;;;;;;;;;;18.70;55.60;;;12.86;80.24;95438.78;5041628;28;20352;-54
2023/05/13 08:15:27;;;;;;;;;;;18.80;55.50;;;12.88;79.68;95437.41;5036485;28;19951;-46
2023/05/13 08:17:53;;;;;;;;;;;18.80;55.30;;;12.99;78.87;95439.97;5034896;28;19991;-48
2023/05/13 08:20:21;;;;;;;;;;;18.90;55.30;;;13.02;78.44;95440.22;5039649;28;19960;-48
2023/05/13 08:22:47;;;;;;;;;;;18.90;55.20;;;13.08;78.55;95443.63;5045564;28;19912;-50
2023/05/13 08:25:14;;;;;;;;;;;19.00;55.10;;;13.14;78.57;95442.50;5051157;28;19915;-50
2023/05/13 08:27:40;;;;;;;;;;;19.00;55.00;;;13.30;78.95;95446.63;5036359;28;19909;-45
2023/05/13 08:30:07;;;;;;;;;;;19.00;55.00;;;13.23;77.73;95438.13;5046316;28;20042;-45
2023/05/13 08:32:32;;;;;;;;;;;19.10;54.90;;;13.23;78.13;95432.78;5040310;28;19936;-47
2023/05/13 08:35:00;;;;;;;;;;;19.10;54.80;;;13.33;77.19;95446.06;5051019;28;19944;-48
2023/05/13 08:37:26;;;;;;;;;;;19.10;54.70;;;13.39;77.26;95438.78;5051100;28;20382;-45
2023/05/13 08:39:52;;;;;;;;;;;19.20;54.60;;;13.21;76.42;95440.28;5041417;28;20326;-45
2023/05/13 08:42:21;;;;;;;;;;;19.30;54.50;;;13.43;75.72;95437.13;5051090;28;19908;-51
2023/05/13 08:44:50;;;;;;;;;;;19.40;54.40;;;13.38;75.97;95445.19;5042240;28;19909;-50
2023/05/13 08:47:31;;;;;;;;;;;19.50;54.30;;;13.50;75.94;95448.25;5033099;28;19958;-48
2023/05/13 08:49:58;;;;;;;;;;;19.50;54.30;;;13.58;74.67;95450.31;5048584;28;19999;-50
2023/05/13 08:52:25;;;;;;;;;;;19.50;54.10;;;13.71;74.96;95459.53;5031249;28;19930;-45
2023/05/13 08:54:51;;;;;;;;;;;19.60;54.00;;;13.78;74.98;95454.59;5050983;28;19908;-46
2023/05/13 08:57:17;;;;;;;;;;;19.60;54.00;;;13.69;74.65;95459.00;5026308;28;19908;-50
2023/05/13 08:59:42;;;;;;;;;;;19.60;53.90;;;13.75;75.14;95459.75;5031382;28;20350;-46
2023/05/13 09:02:09;;;;;;;;;;;19.60;53.80;;;13.64;75.50;95451.84;5045460;28;19912;-48
2023/05/13 09:04:38;;;;;;;;;;;19.50;53.70;;;13.63;74.93;95458.28;5042154;28;19916;-46
2023/05/13 09:07:07;;;;;;;;;;;19.50;53.70;;;13.69;75.26;95467.03;5050474;28;19908;-46
2023/05/13 09:09:34;;;;;;;;;;;19.50;53.70;;;13.78;74.93;95454.59;5019325;28;19947;-47
2023/05/13 09:12:00;;;;;;;;;;;19.50;53.60;;;13.72;73.77;95466.47;5049853;28;20296;-45
2023/05/13 09:14:32;;;;;;;;;;;19.60;53.50;;;13.45;74.17;95467.06;5045043;28;19912;-46
2023/05/13 09:17:00;;;;;;;;;;;19.60;53.30;;;13.28;74.61;95464.03;5024904;28;19995;-50
2023/05/13 09:19:26;;;;;;;;;;;19.50;53.10;;;13.21;74.85;95467.03;5023986;28;19962;-47
2023/05/13 09:21:52;;;;;;;;;;;19.40;53.20;;;13.06;75.71;95465.28;5036748;28;20007;-46
2023/05/13 09:24:20;;;;;;;;;;;19.30;53.20;;;13.25;76.03;95454.69;5050313;28;19915;-52
2023/05/13 09:26:48;;;;;;;;;;;19.20;53.20;;;13.40;75.50;95461.75;5042196;28;20345;-46
2023/05/13 09:29:21;;;;;;;;;;;19.30;53.30;;;13.36;74.86;95466.09;5043860;28;19940;-47
2023/05/13 09:31:59;;;;;;;;;;;19.30;53.20;;;13.41;74.52;95458.00;5040815;28;19909;-49
2023/05/13 09:34:31;;;;;;;;;;;19.40;53.20;;;13.56;74.01;95462.38;5046400;28;19908;-49
2023/05/13 09:37:04;;;;;;;;;;;19.40;53.10;;;13.57;72.90;95455.94;5050644;28;19916;-48
2023/05/13 09:39:33;;;;;;;;;;;19.50;53.00;;;13.59;73.13;95454.56;5041812;28;19924;-46
2023/05/13 09:42:02;;;;;;;;;;;19.50;52.90;;;13.65;73.42;95464.13;5053918;28;19956;-46
2023/05/13 09:44:29;;;;;;;;;;;19.50;52.90;;;13.78;71.85;95465.31;5048256;28;19916;-50
2023/05/13 09:46:55;;;;;;;;;;;19.50;53.40;;;13.82;72.40;95470.88;5046726;28;20394;-52
2023/05/13 09:49:26;;;;;;;;;;;19.60;52.80;;;13.87;71.33;95468.94;5035638;28;19913;-48
2023/05/13 09:51:51;;;;;;;;;;;19.70;52.70;;;13.90;72.25;95464.91;5050901;28;19939;-50
2023/05/13 09:54:17;;;;;;;;;;;19.70;52.60;;;13.91;71.31;95471.84;5053959;28;20382;-51
2023/05/13 09:56:43;;;;;;;;;;;19.80;52.50;;;13.97;70.93;95475.25;5041299;28;19931;-48
2023/05/13 09:59:09;;;;;;;;;;;19.80;52.40;;;14.05;70.79;95469.25;5053070;28;19913;-50
2023/05/13 10:01:35;;;;;;;;;;;19.80;52.20;;;14.07;71.08;95469.75;5050469;28;19999;-48
2023/05/13 10:04:04;;;;;;;;;;;19.90;52.30;;;14.10;69.71;95474.53;5042655;28;19943;-46
2023/05/13 10:06:31;;;;;;;;;;;19.90;52.20;;;14.11;70.58;95478.81;5053411;28;19909;-45
2023/05/13 10:09:03;;;;;;;;;;;20.00;52.10;;;14.01;69.39;95479.75;5033826;28;19916;-50
2023/05/13 10:11:31;;;;;;;;;;;20.00;52.00;;;13.84;69.74;95480.22;5053534;28;19958;-47
2023/05/13 10:14:04;;;;;;;;;;;20.00;51.80;;;13.98;70.62;95484.91;5035315;28;19908;-50
2023/05/13 10:16:33;;;;;;;;;;;20.00;51.80;;;14.00;71.02;95475.47;5031866;28;19908;-45
2023/05/13 10:19:02;;;;;;;;;;;19.90;51.90;;;13.98;71.23;95484.91;5051012;28;19958;-46
2023/05/13 10:21:28;;;;;;;;;;;19.90;51.80;;;13.97;70.80;95484.06;5041298;28;19947;-46
2023/05/13 10:23:55;;;;;;;;;;;19.90;51.70;;;13.97;71.98;95485.97;5053358;28;19957;-45
2023/05/13 10:26:22;;;;;;;;;;;19.80;51.70;;;13.78;72.34;95485.94;5048547;28;19919;-48
2023/05/13 10:28:49;;;;;;;;;;;19.80;51.70;;;13.72;73.79;95479.06;5043643;28;19922;-48
2023/05/13 10:31:16;;;;;;;;;;;19.70;51.70;;;13.66;73.80;95483.66;5043552;28;20003;-47
2023/05/13 10:33:43;;;;;;;;;;;19.50;51.70;;;13.44;74.65;95481.50;5048242;28;19970;-46
2023/05/13 10:36:50;;;;;;;;;;;19.40;51.80;;;13.22;76.37;95481.97;5035473;28;19940;-46
2023/05/13 10:40:02;;;;;;;;;;;19.10;51.90;;;13.31;76.22;95482.19;5043657;28;19912;-46
2023/05/13 10:42:43;;;;;;;;;;;18.90;52.20;;;13.14;75.85;95491.44;5052902;28;19999;-48
2023/05/13 10:45:10;;;;;;;;;;;18.70;52.40;;;13.08;76.72;95481.88;5041683;28;20015;-46
2023/05/13 10:47:37;;;;;;;;;;;18.50;52.60;;;13.09;76.72;95488.78;5051419;28;19916;-46
2023/05/13 10:50:22;;;;;;;;;;;18.40;52.70;;;13.04;78.27;95478.16;5032334;28;19908;-46
2023/05/13 10:52:48;;;;;;;;;;;18.40;52.90;;;13.02;79.74;95477.63;5028476;28;19912;-51
2023/05/13 10:55:19;;;;;;;;;;;18.30;52.90;;;13.00;79.78;95473.66;5052831;28;19908;-47
2023/05/13 10:58:06;;;;;;;;;;;18.30;53.60;;;13.03;81.78;95479.22;5044616;28;19908;-50
2023/05/13 11:00:34;;;;;;;;;;;18.20;53.00;;;12.97;82.37;95475.00;5049032;28;20007;-50
2023/05/13 11:03:18;;;;;;;;;;;18.30;53.10;;;12.92;84.10;95477.75;5043081;28;19917;-49
2023/05/13 11:06:15;;;;;;;;;;;18.30;53.10;;;13.04;84.63;95474.69;5028003;28;19989;-47
2023/05/13 11:08:50;;;;;;;;;;;18.40;53.20;;;13.08;84.11;95476.50;5049430;28;19913;-47
2023/05/13 11:11:21;;;;;;;;;;;18.50;53.30;;;12.98;81.09;95481.97;5052891;28;19912;-49
2023/05/13 11:14:02;;;;;;;;;;;18.60;53.20;;;12.92;83.48;95477.75;5052612;28;20329;-47
2023/05/13 11:16:28;;;;;;;;;;;18.80;53.10;;;13.13;84.71;95468.44;5047217;28;19909;-47
2023/05/13 11:18:54;;;;;;;;;;;19.00;53.00;;;13.12;82.61;95471.38;5050706;28;19920;-46